createdAt,value
2023-05-15T00:08:03.839Z,48.32
2023-05-15T00:16:26.874Z,48.44
2023-05-15T00:24:50.002Z,48.82
2023-05-15T00:33:13.029Z,48.83
2023-05-15T00:41:37.122Z,49.27
2023-05-15T00:50:01.944Z,48.88
2023-05-15T00:58:27.512Z,49.39
2023-05-15T01:06:53.530Z,49.46
2023-05-15T01:15:16.494Z,49.36
2023-05-15T01:24:00.192Z,49.90
2023-05-15T01:32:47.400Z,49.87
2023-05-15T01:41:31.885Z,50.35
2023-05-15T01:49:57.896Z,50.77
2023-05-15T01:58:21.609Z,50.89
2023-05-15T02:06:45.638Z,50.62
2023-05-15T02:15:10.512Z,51.25
2023-05-15T02:23:33.925Z,51.30
2023-05-15T02:32:05.032Z,51.06
2023-05-15T02:40:29.354Z,51.35
2023-05-15T02:48:53.658Z,51.03
2023-05-15T02:57:16.702Z,50.90
2023-05-15T03:05:39.694Z,51.33
2023-05-15T03:14:02.705Z,51.51
2023-05-15T03:22:25.984Z,52.22
2023-05-15T03:30:49.015Z,51.95
2023-05-15T03:39:11.904Z,52.18
2023-05-15T03:47:35.084Z,52.59
2023-05-15T03:55:58.074Z,52.99
2023-05-15T04:04:22.124Z,52.66
2023-05-15T04:12:45.186Z,52.83
2023-05-15T04:21:09.399Z,53.07
2023-05-15T04:29:32.396Z,52.93
2023-05-15T04:37:55.272Z,52.73
2023-05-15T04:46:18.223Z,53.03
2023-05-15T04:54:41.186Z,52.91
2023-05-15T05:03:04.953Z,53.02
2023-05-15T05:11:29.533Z,53.28
2023-05-15T05:19:52.405Z,53.28
2023-05-15T05:28:15.890Z,53.25
2023-05-15T05:36:38.785Z,53.23
2023-05-15T05:45:01.854Z,53.46
2023-05-15T05:53:24.838Z,54.63
2023-05-15T06:01:49.797Z,55.88
2023-05-15T06:10:14.004Z,56.57
2023-05-15T06:18:37.350Z,57.78
2023-05-15T06:27:01.107Z,58.17
2023-05-15T06:35:24.274Z,59.13
2023-05-15T06:43:47.335Z,61.03
2023-05-15T06:52:11.083Z,61.45
2023-05-15T07:00:34.111Z,62.15
2023-05-15T07:08:57.106Z,64.87
2023-05-15T07:17:20.157Z,66.80
2023-05-15T07:25:43.485Z,67.95
2023-05-15T07:34:07.163Z,68.36
2023-05-15T07:42:30.345Z,70.04
2023-05-15T07:50:54.025Z,70.90
2023-05-15T07:59:17.019Z,71.04
2023-05-15T08:07:41.270Z,71.23
2023-05-15T08:16:04.596Z,72.64
2023-05-15T08:24:27.649Z,73.77
2023-05-15T08:32:50.581Z,74.47
2023-05-15T08:41:41.006Z,77.02
2023-05-15T08:50:15.898Z,79.01
2023-05-15T08:58:39.146Z,79.67
2023-05-15T09:07:03.797Z,80.06
2023-05-15T09:15:28.224Z,80.33
2023-05-15T09:23:52.187Z,80.81
2023-05-15T09:32:18.695Z,81.36
2023-05-15T09:40:42.097Z,81.36
2023-05-15T09:49:05.060Z,80.10
2023-05-15T09:57:28.003Z,79.39
2023-05-15T10:05:59.240Z,80.39
2023-05-15T10:14:23.362Z,82.28
2023-05-15T10:22:48.654Z,83.76
2023-05-15T10:31:13.106Z,85.89
2023-05-15T10:39:41.264Z,88.05
2023-05-15T10:48:07.837Z,90.28
2023-05-15T10:56:32.829Z,90.88
2023-05-15T11:05:03.804Z,92.40
2023-05-15T11:13:27.181Z,93.62
2023-05-15T11:22:32.225Z,94.27
2023-05-15T11:31:01.079Z,95.29
2023-05-15T11:39:25.429Z,97.02
2023-05-15T11:47:48.413Z,97.89
2023-05-15T11:56:29.314Z,97.85
2023-05-15T12:04:52.390Z,98.47
2023-05-15T12:13:18.640Z,99.20
2023-05-15T12:21:46.954Z,99.32
2023-05-15T12:30:11.540Z,99.57
2023-05-15T12:38:38.163Z,99.59
2023-05-15T12:47:01.578Z,99.85
2023-05-15T12:55:36.104Z,100.00
2023-05-15T13:03:59.213Z,99.97
2023-05-15T13:12:23.895Z,100.00
2023-05-15T13:20:48.989Z,100.00
2023-05-15T13:29:12.608Z,100.00
2023-05-15T13:37:37.244Z,99.78
2023-05-15T13:46:00.672Z,99.08
2023-05-15T13:54:24.939Z,99.02
2023-05-15T14:02:48.109Z,98.61
2023-05-15T14:11:11.089Z,98.87
2023-05-15T14:19:34.618Z,99.14
2023-05-15T14:27:57.468Z,98.74
2023-05-15T14:36:20.432Z,97.66
2023-05-15T14:44:43.259Z,96.41
2023-05-15T14:53:06.118Z,94.48
2023-05-15T15:01:29.225Z,93.68
2023-05-15T15:09:52.121Z,93.92
2023-05-15T15:18:15.507Z,93.32
2023-05-15T15:26:38.503Z,93.13
2023-05-15T15:35:01.448Z,93.51
2023-05-15T15:43:24.369Z,93.91
2023-05-15T15:51:47.243Z,95.01
2023-05-15T16:00:10.613Z,95.70
2023-05-15T16:08:33.485Z,95.70
2023-05-15T16:16:56.695Z,94.63
2023-05-15T16:25:19.727Z,91.85
2023-05-15T16:33:43.665Z,88.61
2023-05-15T16:42:09.472Z,88.29
2023-05-15T16:50:35.375Z,90.22
2023-05-15T16:58:58.180Z,91.49
2023-05-15T17:07:21.015Z,92.51
2023-05-15T17:15:45.154Z,92.39
2023-05-15T17:24:08.887Z,91.78
2023-05-15T17:32:31.774Z,92.68
2023-05-15T17:40:55.608Z,93.71
2023-05-15T17:49:18.659Z,94.12
2023-05-15T17:57:41.551Z,95.26
2023-05-15T18:06:04.619Z,96.07
2023-05-15T18:14:27.455Z,97.21
2023-05-15T18:22:50.836Z,97.91
2023-05-15T18:31:13.957Z,97.97
2023-05-15T18:39:37.897Z,98.62
2023-05-15T18:48:01.362Z,99.80
2023-05-15T18:56:25.180Z,99.81
2023-05-15T19:04:48.160Z,100.00
2023-05-15T19:13:10.993Z,100.00
2023-05-15T19:21:33.885Z,100.00
2023-05-15T19:29:57.529Z,100.00
2023-05-15T19:38:20.653Z,100.00
2023-05-15T19:46:45.128Z,100.00
2023-05-15T19:55:08.632Z,100.00
2023-05-15T20:03:34.579Z,100.00
2023-05-15T20:11:57.815Z,100.00
2023-05-15T20:20:21.536Z,100.00
2023-05-15T20:28:45.400Z,100.00
2023-05-15T20:37:09.481Z,100.00
2023-05-15T20:45:32.492Z,100.00
2023-05-15T20:53:56.145Z,100.00
2023-05-15T21:02:19.082Z,100.00
2023-05-15T21:10:41.981Z,100.00
2023-05-15T21:19:05.056Z,100.00
2023-05-15T21:27:27.983Z,100.00
2023-05-15T21:35:51.610Z,100.00
2023-05-15T21:44:14.737Z,100.00
2023-05-15T21:52:37.729Z,100.00
2023-05-15T22:01:00.618Z,100.00
2023-05-15T22:09:23.668Z,100.00
2023-05-15T22:17:46.650Z,100.00
2023-05-15T22:26:09.687Z,100.00
2023-05-15T22:34:32.753Z,100.00
2023-05-15T22:43:13.085Z,100.00
2023-05-15T22:51:37.041Z,100.00
2023-05-15T22:59:59.957Z,100.00
2023-05-15T23:08:40.662Z,100.00
2023-05-15T23:17:04.325Z,100.00
2023-05-15T23:25:27.180Z,100.00
2023-05-15T23:33:50.696Z,100.00
2023-05-15T23:42:13.549Z,100.00
2023-05-15T23:50:36.707Z,100.00
2023-05-15T23:58:59.736Z,100.00
